Time;durP1;ratioP1;P1;durP2;ratioP2;P2;SDS_P1;SDS_P2;PMS_P1;PMS_P2;Temp;Humidity;BMP_temperature;BMP_pressure;BME280_temperature;BME280_humidity;BME280_pressure;Samples;Min_cycle;Max_cycle;Signal;HPM_P1;HPM_P2
2022/10/24 00:02:07;;;;;;;9.60;4.20;;;;;;;16.64;50.62;100358.53;5069650;28;20024;-43
2022/10/24 00:04:37;;;;;;;9.88;4.43;;;;;;;16.37;50.83;100356.19;5070122;28;20020;-43
2022/10/24 00:07:03;;;;;;;9.82;4.65;;;;;;;16.58;50.52;100344.97;5070075;28;20103;-43
2022/10/24 00:09:29;;;;;;;8.10;4.60;;;;;;;16.60;50.16;100342.88;5070016;28;20028;-42
2022/10/24 00:11:54;;;;;;;6.22;4.28;;;;;;;16.60;49.86;100350.94;5070481;28;20035;-41
2022/10/24 00:14:20;;;;;;;6.55;4.07;;;;;;;16.60;49.73;100350.09;5070657;28;20027;-42
2022/10/24 00:16:45;;;;;;;8.48;4.10;;;;;;;16.53;50.00;100346.69;5070744;28;20020;-42
2022/10/24 00:19:11;;;;;;;5.60;4.20;;;;;;;16.45;49.57;100347.84;5069683;28;20025;-42
2022/10/24 00:21:36;;;;;;;7.72;4.07;;;;;;;16.28;50.44;100341.44;5070438;28;20043;-43
2022/10/24 00:24:02;;;;;;;7.45;4.22;;;;;;;16.22;50.21;100338.63;5070147;28;20028;-42
2022/10/24 00:26:28;;;;;;;9.65;4.35;;;;;;;16.33;49.97;100347.78;5070320;28;20035;-43
2022/10/24 00:28:54;;;;;;;7.15;4.07;;;;;;;16.20;49.95;100346.09;5070197;28;20033;-41
2022/10/24 00:31:20;;;;;;;6.43;3.80;;;;;;;16.24;49.84;100346.47;5069444;28;20086;-41
2022/10/24 00:33:45;;;;;;;6.65;4.03;;;;;;;16.22;50.32;100345.84;5069771;28;20024;-41
2022/10/24 00:36:16;;;;;;;5.72;4.03;;;;;;;16.23;50.07;100342.13;5070557;28;20452;-42
2022/10/24 00:38:42;;;;;;;10.95;3.90;;;;;;;16.22;49.89;100340.47;5070278;28;20500;-41
2022/10/24 00:41:13;;;;;;;10.73;4.53;;;;;;;16.12;49.71;100340.19;5069678;28;20032;-43
2022/10/24 00:43:39;;;;;;;5.95;4.18;;;;;;;16.10;49.52;100351.16;5070096;28;20116;-42
2022/10/24 00:46:04;;;;;;;8.35;3.78;;;;;;;16.18;47.49;100350.03;5070037;28;20131;-42
2022/10/24 00:48:48;;;;;;;6.43;3.50;;;;;;;16.08;48.09;100353.25;5070017;28;20092;-41
2022/10/24 00:51:20;;;;;;;5.78;3.55;;;;;;;15.90;48.23;100354.09;5069834;28;20032;-42
2022/10/24 00:53:49;;;;;;;7.38;3.60;;;;;;;15.74;48.98;100357.34;5070096;28;20028;-43
2022/10/24 00:56:18;;;;;;;8.63;3.40;;;;;;;15.79;47.73;100344.91;5070017;28;20547;-42
2022/10/24 00:58:46;;;;;;;6.53;3.53;;;;;;;15.60;49.23;100343.22;5069889;28;20016;-43
2022/10/24 01:01:11;;;;;;;4.53;3.42;;;;;;;15.67;49.68;100343.16;5069869;28;20021;-43
2022/10/24 01:03:37;;;;;;;5.55;3.30;;;;;;;15.57;49.33;100327.56;5070069;28;20036;-41
2022/10/24 01:06:11;;;;;;;7.53;3.38;;;;;;;15.66;49.58;100342.34;5069963;28;20028;-43
2022/10/24 01:08:49;;;;;;;4.80;3.45;;;;;;;15.69;49.54;100336.53;5069928;28;20028;-43
2022/10/24 01:11:52;;;;;;;6.78;3.60;;;;;;;15.69;49.23;100331.16;5070007;28;20063;-44
2022/10/24 01:14:54;;;;;;;6.68;3.20;;;;;;;15.45;49.79;100330.16;5057471;28;20070;-43
2022/10/24 01:17:41;;;;;;;5.45;3.10;;;;;;;15.46;50.20;100326.44;5069888;28;20021;-42
2022/10/24 01:20:15;;;;;;;4.13;2.88;;;;;;;15.37;50.13;100325.91;5071346;28;20062;-42
2022/10/24 01:23:08;;;;;;;6.55;3.88;;;;;;;15.57;50.61;100328.41;5073679;28;20120;-43
2022/10/24 01:25:54;;;;;;;6.82;3.88;;;;;;;15.60;50.79;100327.94;5073768;28;20052;-42
2022/10/24 01:28:29;;;;;;;8.38;3.70;;;;;;;15.52;50.30;100336.28;5073344;28;20024;-42
2022/10/24 01:31:11;;;;;;;8.10;3.55;;;;;;;15.34;51.38;100328.22;5073625;28;20078;-43
2022/10/24 01:33:48;;;;;;;8.40;3.80;;;;;;;15.19;51.57;100339.25;5073544;28;20028;-42
2022/10/24 01:36:19;;;;;;;5.75;3.72;;;;;;;15.35;51.28;100335.22;5073642;28;20439;-43
2022/10/24 01:38:56;;;;;;;6.00;3.83;;;;;;;15.41;50.74;100334.34;5073352;28;20032;-43
2022/10/24 01:41:26;;;;;;;4.88;3.25;;;;;;;15.48;50.87;100336.94;5073554;28;20052;-42
2022/10/24 01:44:09;;;;;;;9.23;3.65;;;;;;;15.47;51.29;100341.50;5074241;28;20093;-41
2022/10/24 01:46:41;;;;;;;6.75;3.60;;;;;;;15.38;51.31;100340.97;5074115;28;20024;-43
2022/10/24 01:49:14;;;;;;;6.45;3.70;;;;;;;15.42;51.10;100339.47;5074044;28;20056;-44
2022/10/24 01:51:41;;;;;;;4.95;3.35;;;;;;;15.33;50.08;100340.81;5074075;28;20108;-44
2022/10/24 01:54:08;;;;;;;7.32;3.53;;;;;;;15.27;50.26;100328.28;5073954;28;20024;-45
2022/10/24 01:56:34;;;;;;;4.93;3.25;;;;;;;15.22;50.48;100334.28;5073547;28;20057;-41
2022/10/24 01:59:27;;;;;;;5.50;3.42;;;;;;;15.31;49.63;100340.19;5073700;28;20017;-43
2022/10/24 02:02:05;;;;;;;12.48;3.72;;;;;;;15.33;50.37;100342.66;5066344;28;20496;-42
2022/10/24 02:04:35;;;;;;;6.38;3.30;;;;;;;15.31;50.23;100339.38;5073702;28;20334;-45
2022/10/24 02:07:06;;;;;;;5.63;3.60;;;;;;;15.34;50.22;100344.28;5074104;28;20099;-43
2022/10/24 02:09:34;;;;;;;4.80;3.47;;;;;;;15.14;49.98;100345.28;5073340;28;20024;-42
2022/10/24 02:11:59;;;;;;;8.38;3.75;;;;;;;15.08;50.44;100340.81;5073440;28;20141;-43
2022/10/24 02:14:38;;;;;;;6.70;3.95;;;;;;;15.23;50.42;100343.97;5073450;28;20028;-44
2022/10/24 02:17:04;;;;;;;6.80;3.88;;;;;;;15.30;49.78;100351.16;5073583;28;20433;-44
2022/10/24 02:19:31;;;;;;;4.95;3.70;;;;;;;15.29;50.28;100357.53;5073574;28;20021;-44
2022/10/24 02:22:06;;;;;;;7.97;4.32;;;;;;;15.37;50.37;100350.03;5073159;28;20483;-44
2022/10/24 02:24:38;;;;;;;6.90;3.72;;;;;;;15.28;50.12;100351.34;5072890;28;20032;-45
2022/10/24 02:27:07;;;;;;;14.20;4.40;;;;;;;15.21;50.47;100348.75;5073385;28;20032;-42
2022/10/24 02:30:04;;;;;;;6.70;4.13;;;;;;;15.41;49.18;100359.28;5073371;28;20142;-43
2022/10/24 02:32:57;;;;;;;7.20;3.92;;;;;;;15.47;50.11;100356.78;5072219;28;20082;-44
2022/10/24 02:35:30;;;;;;;8.30;3.83;;;;;;;15.47;49.71;100360.25;5073515;28;20051;-44
2022/10/24 02:38:39;;;;;;;5.75;3.75;;;;;;;15.49;49.68;100360.06;5073120;28;20108;-43
2022/10/24 02:41:10;;;;;;;6.43;4.15;;;;;;;15.41;49.72;100355.78;5069869;28;20431;-43
2022/10/24 02:43:37;;;;;;;7.03;3.83;;;;;;;15.25;49.82;100349.94;5072846;28;20052;-43
2022/10/24 02:46:04;;;;;;;5.75;3.80;;;;;;;15.11;50.18;100351.06;5072780;28;20020;-43
2022/10/24 02:48:35;;;;;;;9.07;4.07;;;;;;;15.06;50.57;100350.94;5073271;28;20020;-42
2022/10/24 02:51:02;;;;;;;9.07;3.85;;;;;;;15.05;50.12;100347.41;5072921;28;20020;-43
2022/10/24 02:53:27;;;;;;;8.15;3.92;;;;;;;14.97;50.72;100338.84;5072997;28;20016;-44
2022/10/24 02:55:53;;;;;;;10.25;4.18;;;;;;;14.99;50.87;100347.47;5073109;28;20434;-43
2022/10/24 02:58:19;;;;;;;9.27;3.53;;;;;;;15.14;50.50;100349.84;5072725;28;20020;-43
2022/10/24 03:00:44;;;;;;;7.15;3.45;;;;;;;15.14;50.46;100345.28;5072334;28;20055;-45
2022/10/24 03:03:10;;;;;;;21.60;10.25;;;;;;;15.13;50.49;100346.31;5072774;28;20024;-45
2022/10/24 03:05:35;;;;;;;18.35;11.27;;;;;;;15.19;50.34;100348.16;5072561;28;20024;-43
2022/10/24 03:08:01;;;;;;;42.33;23.55;;;;;;;15.21;49.94;100350.59;5072533;28;20025;-44
2022/10/24 03:10:26;;;;;;;29.45;14.90;;;;;;;15.31;50.01;100364.34;5072233;28;20507;-45
2022/10/24 03:12:51;;;;;;;15.95;8.90;;;;;;;15.32;49.67;100355.22;5072709;28;20484;-43
2022/10/24 03:15:18;;;;;;;10.15;4.50;;;;;;;15.37;49.72;100349.22;5071978;28;20397;-42
2022/10/24 03:17:43;;;;;;;8.90;4.10;;;;;;;15.32;49.85;100352.56;5071838;28;20028;-42
2022/10/24 03:20:09;;;;;;;11.80;4.53;;;;;;;15.22;49.94;100345.00;5072232;28;20029;-42
2022/10/24 03:22:34;;;;;;;9.90;4.22;;;;;;;15.13;50.65;100340.16;5072207;28;20117;-44
2022/10/24 03:25:02;;;;;;;9.82;4.65;;;;;;;15.03;51.28;100349.50;5072014;28;20085;-43
2022/10/24 03:27:29;;;;;;;11.55;5.28;;;;;;;15.03;50.50;100346.81;5071389;28;20032;-41
2022/10/24 03:29:54;;;;;;;28.58;7.55;;;;;;;14.96;51.03;100345.22;5071873;28;20453;-41
2022/10/24 03:32:20;;;;;;;56.75;9.63;;;;;;;14.81;51.56;100338.34;5070726;28;20033;-45
2022/10/24 03:34:46;;;;;;;68.50;12.25;;;;;;;14.88;51.00;100351.66;5072011;28;20541;-43
2022/10/24 03:37:11;;;;;;;122.10;58.00;;;;;;;14.74;51.55;100344.78;5071916;28;20025;-44
2022/10/24 03:39:37;;;;;;;29.73;13.63;;;;;;;14.56;52.34;100350.81;5071779;28;20395;-45
2022/10/24 03:42:02;;;;;;;14.48;6.90;;;;;;;14.50;52.20;100349.00;5071279;28;20105;-42
2022/10/24 03:44:28;;;;;;;13.38;6.65;;;;;;;14.54;52.06;100350.19;5071442;28;20020;-45
2022/10/24 03:46:53;;;;;;;18.08;6.32;;;;;;;14.47;52.45;100353.75;5071989;28;20044;-45
2022/10/24 03:49:19;;;;;;;19.17;6.85;;;;;;;14.33;52.90;100354.03;5071921;28;20385;-43
2022/10/24 03:51:44;;;;;;;17.77;7.07;;;;;;;14.34;53.15;100351.13;5071587;28;20029;-44
2022/10/24 03:54:11;;;;;;;15.07;7.45;;;;;;;14.33;52.84;100352.16;5071612;28;20105;-42
2022/10/24 03:56:36;;;;;;;15.13;7.25;;;;;;;14.48;52.41;100341.97;5071946;28;20100;-44
2022/10/24 03:59:02;;;;;;;13.73;7.13;;;;;;;14.58;52.33;100349.59;5071892;28;20495;-44
2022/10/24 04:01:27;;;;;;;13.27;7.03;;;;;;;14.61;52.46;100340.31;5071854;28;20020;-45
2022/10/24 04:03:53;;;;;;;14.13;6.80;;;;;;;14.67;52.59;100339.44;5072212;28;20030;-43
2022/10/24 04:06:18;;;;;;;18.92;7.00;;;;;;;14.60;52.42;100333.31;5071679;28;20031;-43
2022/10/24 04:08:44;;;;;;;16.63;6.72;;;;;;;14.67;52.27;100339.44;5071452;28;20473;-45
2022/10/24 04:11:09;;;;;;;17.42;6.72;;;;;;;14.67;52.69;100339.44;5071878;28;20107;-43
2022/10/24 04:13:35;;;;;;;9.98;5.65;;;;;;;14.87;62.81;100344.69;5071553;28;20038;-44
2022/10/24 04:16:00;;;;;;;20.80;10.38;;;;;;;15.18;53.18;100337.63;5071297;28;20083;-43
2022/10/24 04:18:26;;;;;;;21.80;12.80;;;;;;;15.28;52.25;100340.63;5071155;28;20035;-44
2022/10/24 04:20:51;;;;;;;17.73;9.52;;;;;;;15.18;51.73;100337.63;5071550;28;20029;-44
2022/10/24 04:23:17;;;;;;;17.25;7.80;;;;;;;15.19;51.30;100340.09;5071321;28;20052;-43
2022/10/24 04:25:42;;;;;;;15.27;6.55;;;;;;;15.06;51.83;100337.53;5072873;28;20028;-44
2022/10/24 04:28:08;;;;;;;15.75;5.72;;;;;;;15.06;51.63;100334.84;5072232;28;20454;-44
2022/10/24 04:30:34;;;;;;;12.85;6.05;;;;;;;15.03;52.17;100337.97;5071219;28;20065;-43
2022/10/24 04:32:59;;;;;;;13.50;5.80;;;;;;;14.77;55.61;100336.28;5062699;28;20024;-42
2022/10/24 04:35:25;;;;;;;9.80;5.43;;;;;;;14.83;54.42;100322.84;5058583;28;20035;-42
2022/10/24 04:37:50;;;;;;;13.65;5.88;;;;;;;15.12;52.81;100330.47;5070722;28;20070;-43
2022/10/24 04:40:16;;;;;;;15.07;5.90;;;;;;;15.20;53.04;100335.56;5070854;28;20016;-45
2022/10/24 04:42:41;;;;;;;11.68;6.03;;;;;;;15.11;52.86;100336.88;5070816;28;20027;-43
2022/10/24 04:45:08;;;;;;;12.50;6.05;;;;;;;15.02;52.41;100338.97;5071056;28;20117;-44
2022/10/24 04:47:33;;;;;;;13.95;6.20;;;;;;;15.05;52.63;100333.19;5070150;28;20480;-42
2022/10/24 04:49:58;;;;;;;17.73;5.88;;;;;;;15.04;53.12;100329.69;5080422;28;20023;-43
2022/10/24 04:52:24;;;;;;;21.65;6.63;;;;;;;15.06;52.51;100334.84;5080277;28;20032;-42
2022/10/24 04:54:49;;;;;;;14.80;6.43;;;;;;;15.13;52.75;100335.59;5072296;28;20024;-43
2022/10/24 04:57:15;;;;;;;26.83;14.25;;;;;;;15.14;53.30;100334.56;5063189;28;20170;-43
2022/10/24 04:59:40;;;;;;;22.17;9.20;;;;;;;15.19;53.43;100337.44;5075046;28;20020;-42
2022/10/24 05:02:06;;;;;;;20.08;8.27;;;;;;;15.35;51.88;100338.72;5071223;28;20039;-43
2022/10/24 05:04:31;;;;;;;18.45;8.25;;;;;;;15.41;52.20;100345.88;5068880;28;20027;-44
2022/10/24 05:06:57;;;;;;;17.85;8.27;;;;;;;15.55;51.50;100346.56;5069252;28;20028;-43
2022/10/24 05:09:22;;;;;;;16.15;7.90;;;;;;;15.73;51.37;100348.50;5069103;28;20044;-42
2022/10/24 05:11:47;;;;;;;18.52;8.88;;;;;;;15.78;50.83;100356.69;5068279;28;20032;-44
2022/10/24 05:14:13;;;;;;;24.27;8.60;;;;;;;15.92;51.30;100352.00;5067694;28;20039;-43
2022/10/24 05:16:39;;;;;;;22.02;8.15;;;;;;;16.12;50.67;100353.63;5068339;28;20020;-44
2022/10/24 05:19:05;;;;;;;15.73;7.68;;;;;;;16.16;50.59;100349.44;5063275;28;20376;-42
2022/10/24 05:21:32;;;;;;;24.55;9.15;;;;;;;16.28;50.58;100361.06;5069005;28;20036;-42
2022/10/24 05:23:58;;;;;;;26.58;9.82;;;;;;;16.54;50.19;100364.44;5068627;28;20614;-43
2022/10/24 05:26:24;;;;;;;21.75;8.38;;;;;;;16.79;49.82;100359.75;5068097;28;20484;-43
2022/10/24 05:28:50;;;;;;;24.77;8.88;;;;;;;17.11;48.93;100364.88;5067789;28;20040;-43
2022/10/24 05:31:15;;;;;;;27.17;8.43;;;;;;;17.24;48.75;100371.09;5068745;28;20660;-41
2022/10/24 05:33:41;;;;;;;27.35;8.55;;;;;;;17.64;47.63;100375.78;5068365;28;20035;-41
2022/10/24 05:36:07;;;;;;;25.75;9.00;;;;;;;17.93;46.97;100374.88;5067002;28;20031;-42
2022/10/24 05:38:32;;;;;;;20.92;8.38;;;;;;;18.28;46.21;100371.25;5066972;28;20417;-41
2022/10/24 05:40:58;;;;;;;19.13;8.38;;;;;;;18.57;45.18;100376.66;5066953;28;20464;-42
2022/10/24 05:43:23;;;;;;;23.42;8.45;;;;;;;18.95;44.49;100370.63;5067036;28;20372;-42
2022/10/24 05:45:49;;;;;;;22.67;9.10;;;;;;;19.25;44.06;100369.50;5066780;28;20028;-43
2022/10/24 05:48:15;;;;;;;26.05;9.02;;;;;;;19.36;43.96;100373.16;5066965;28;20025;-41
2022/10/24 05:50:41;;;;;;;31.90;8.80;;;;;;;19.67;43.44;100374.44;5067978;28;20021;-43
2022/10/24 05:53:07;;;;;;;23.73;8.35;;;;;;;20.00;42.14;100386.25;5068619;28;20027;-42
2022/10/24 05:55:33;;;;;;;24.95;8.20;;;;;;;20.20;41.97;100379.47;5068710;28;20024;-42
2022/10/24 05:57:59;;;;;;;28.95;8.07;;;;;;;20.46;41.04;100378.69;5068134;28;20407;-42
2022/10/24 06:00:25;;;;;;;26.55;8.00;;;;;;;20.75;40.75;100374.97;5068258;28;20024;-41
2022/10/24 06:02:50;;;;;;;19.00;7.50;;;;;;;20.72;39.90;100338.44;5069402;28;20445;-42
2022/10/24 06:05:16;;;;;;;25.40;7.78;;;;;;;21.26;38.73;100378.94;5069395;28;20051;-42
2022/10/24 06:07:41;;;;;;;16.67;7.35;;;;;;;21.41;38.45;100374.72;5072600;28;20416;-42
2022/10/24 06:10:08;;;;;;;20.67;7.47;;;;;;;21.69;38.08;100384.41;5072016;28;20024;-41
2022/10/24 06:12:36;;;;;;;24.92;7.38;;;;;;;22.06;37.21;100394.34;5070861;28;20035;-41
2022/10/24 06:15:05;;;;;;;26.95;7.07;;;;;;;22.19;37.01;100388.44;5071271;28;20111;-41
2022/10/24 06:17:31;;;;;;;23.55;7.28;;;;;;;22.19;36.73;100383.03;5071130;28;20385;-43
2022/10/24 06:19:56;;;;;;;21.38;7.13;;;;;;;22.50;36.24;100395.91;5070470;28;20503;-42
2022/10/24 06:22:23;;;;;;;18.73;7.05;;;;;;;22.38;36.38;100391.53;5070564;28;20101;-42
2022/10/24 06:24:48;;;;;;;14.75;6.57;;;;;;;22.57;36.00;100389.13;5070702;28;20500;-41
2022/10/24 06:27:14;;;;;;;20.85;7.10;;;;;;;22.59;36.25;100388.88;5071560;28;20153;-43
2022/10/24 06:29:40;;;;;;;17.42;6.20;;;;;;;23.00;35.40;100391.66;5072032;28;20499;-43
2022/10/24 06:32:05;;;;;;;20.20;6.63;;;;;;;23.26;35.09;100392.50;5072274;28;20039;-44
2022/10/24 06:34:31;;;;;;;15.50;6.57;;;;;;;23.71;34.83;100392.72;5072290;28;20020;-42
2022/10/24 06:36:56;;;;;;;17.88;5.60;;;;;;;23.54;34.93;100393.03;5072023;28;20085;-43
2022/10/24 06:39:22;;;;;;;14.30;5.40;;;;;;;24.06;34.07;100399.97;5072354;28;20013;-43
2022/10/24 06:41:47;;;;;;;12.18;5.03;;;;;;;24.29;33.65;100412.09;5072205;28;20096;-41
2022/10/24 06:44:13;;;;;;;14.75;5.93;;;;;;;24.40;33.19;100402.00;5072353;28;20503;-42
2022/10/24 06:46:39;;;;;;;13.82;5.85;;;;;;;24.20;32.97;100362.94;5072263;28;20546;-43
2022/10/24 06:49:04;;;;;;;15.10;5.20;;;;;;;24.39;32.93;100394.94;5070459;28;20020;-43
2022/10/24 06:51:30;;;;;;;13.25;5.55;;;;;;;24.44;32.89;100403.06;5072062;28;20104;-43
2022/10/24 06:53:56;;;;;;;12.55;4.95;;;;;;;24.32;33.05;100399.88;5072012;28;20045;-42
2022/10/24 06:56:22;;;;;;;8.45;4.10;;;;;;;24.38;33.13;100401.47;5071941;28;20128;-42
2022/10/24 06:58:47;;;;;;;9.27;4.10;;;;;;;24.66;32.61;100401.91;5072151;28;20103;-42
2022/10/24 07:01:16;;;;;;;5.30;3.72;;;;;;;24.66;32.52;100407.34;5071796;28;20143;-41
2022/10/24 07:03:42;;;;;;;;;;;;;;;25.07;31.90;100399.69;5072242;28;20483;-43
2022/10/24 07:06:12;;;;;;;15.52;5.07;;;;;;;24.91;32.19;100400.91;5071612;28;20011;-44
2022/10/24 07:08:38;;;;;;;10.40;4.88;;;;;;;24.86;32.11;100400.94;5071553;28;20106;-42
2022/10/24 07:11:03;;;;;;;8.88;4.30;;;;;;;25.19;31.80;100402.06;5071357;28;20083;-42
2022/10/24 07:13:29;;;;;;;8.07;4.53;;;;;;;25.50;31.36;100399.09;5071639;28;20090;-43
2022/10/24 07:15:54;;;;;;;11.38;4.28;;;;;;;25.81;30.94;100401.50;5071395;28;20107;-44
2022/10/24 07:18:20;;;;;;;9.35;3.85;;;;;;;26.06;30.62;100393.03;5070686;28;20551;-43
2022/10/24 07:20:46;;;;;;;6.93;3.70;;;;;;;26.05;29.78;100388.72;5071752;28;20036;-44
2022/10/24 07:23:12;;;;;;;9.75;4.07;;;;;;;25.39;31.13;100403.00;5071413;28;20496;-43
2022/10/24 07:25:38;;;;;;;13.07;6.47;;;;;;;25.60;30.82;100384.56;5071447;28;20100;-44
2022/10/24 07:28:05;;;;;;;7.03;4.15;;;;;;;26.16;29.97;100385.84;5071800;28;20055;-42
2022/10/24 07:30:30;;;;;;;18.50;5.13;;;;;;;25.88;30.21;100383.69;5072181;28;20148;-43
2022/10/24 07:32:56;;;;;;;7.78;3.30;;;;;;;26.60;29.43;100376.53;5071339;28;20036;-43
2022/10/24 07:35:22;;;;;;;3.58;3.05;;;;;;;26.85;28.88;100386.28;5071767;28;20116;-43
2022/10/24 07:37:49;;;;;;;6.82;3.40;;;;;;;26.99;28.72;100378.94;5051486;28;20049;-43
2022/10/24 07:40:15;;;;;;;6.28;2.97;;;;;;;27.30;28.32;100384.75;5051910;28;20037;-43
2022/10/24 07:42:40;;;;;;;8.35;3.17;;;;;;;27.68;27.81;100383.78;5051315;28;20469;-44
2022/10/24 07:45:07;;;;;;;12.25;4.90;;;;;;;28.08;27.12;100382.22;5051466;28;20060;-42
2022/10/24 07:47:32;;;;;;;8.57;3.70;;;;;;;28.31;26.91;100392.38;5051278;28;20029;-43
2022/10/24 07:49:57;;;;;;;13.00;4.68;;;;;;;28.22;27.20;100392.31;5051148;28;20055;-43
2022/10/24 07:52:23;;;;;;;11.93;4.65;;;;;;;27.99;27.41;100392.25;5050233;28;20029;-43
2022/10/24 07:54:51;;;;;;;8.48;4.05;;;;;;;28.02;27.44;100388.06;5050850;28;20083;-42
2022/10/24 07:57:16;;;;;;;10.65;4.47;;;;;;;27.58;29.73;100389.44;5050528;28;20102;-45
2022/10/24 07:59:42;;;;;;;10.70;4.05;;;;;;;28.22;27.97;100390.38;5050752;28;20424;-43
2022/10/24 08:02:12;;;;;;;10.20;4.00;;;;;;;28.52;26.74;100388.13;5051091;28;20021;-44
2022/10/24 08:04:38;;;;;;;10.02;4.40;;;;;;;27.86;27.39;100376.59;5050439;28;20485;-42
2022/10/24 08:07:10;;;;;;;9.00;5.07;;;;;;;27.64;28.61;100375.38;5050961;28;20078;-43
2022/10/24 08:09:44;;;;;;;15.52;4.57;;;;;;;27.32;29.07;100380.88;5050593;28;20104;-43
2022/10/24 08:12:10;;;;;;;9.25;4.43;;;;;;;28.02;28.42;100380.66;5050464;28;20489;-44
2022/10/24 08:14:37;;;;;;;8.30;3.97;;;;;;;27.90;28.03;100371.38;5050367;28;20028;-44
2022/10/24 08:17:04;;;;;;;10.38;4.20;;;;;;;28.02;27.53;100371.66;5050170;28;20400;-46
2022/10/24 08:19:30;;;;;;;9.63;3.90;;;;;;;28.35;26.34;100363.28;5050396;28;20097;-44
2022/10/24 08:21:55;;;;;;;8.00;4.57;;;;;;;28.56;26.17;100375.44;5050235;28;20064;-45
2022/10/24 08:24:21;;;;;;;13.48;5.00;;;;;;;27.71;27.99;100371.44;5049779;28;20080;-43
2022/10/24 08:26:47;;;;;;;10.85;4.43;;;;;;;28.27;29.06;100381.25;5050095;28;20025;-43
2022/10/24 08:29:14;;;;;;;7.20;3.50;;;;;;;28.63;27.46;100372.28;5049111;28;20043;-43
2022/10/24 08:31:40;;;;;;;5.72;3.25;;;;;;;28.62;26.58;100374.22;5050048;28;20104;-43
2022/10/24 08:34:06;;;;;;;7.53;3.50;;;;;;;29.02;26.91;100379.03;5049857;28;20108;-45
2022/10/24 08:36:34;;;;;;;9.93;3.22;;;;;;;29.19;26.40;100365.47;5050115;28;20344;-44
2022/10/24 08:39:00;;;;;;;7.43;3.50;;;;;;;29.30;26.63;100373.41;5048010;28;20025;-45
2022/10/24 08:41:29;;;;;;;5.93;3.58;;;;;;;29.42;26.06;100363.47;5050203;28;20604;-43
2022/10/24 08:43:57;;;;;;;7.22;3.38;;;;;;;28.62;26.57;100362.44;5049768;28;20042;-44
2022/10/24 08:46:31;;;;;;;7.25;3.70;;;;;;;29.03;26.66;100359.53;5050193;28;20033;-43
2022/10/24 08:49:10;;;;;;;7.40;3.33;;;;;;;29.30;26.00;100352.31;5047236;28;20029;-42
2022/10/24 08:51:39;;;;;;;7.22;3.20;;;;;;;29.48;25.61;100349.66;5046648;28;20020;-43
2022/10/24 08:54:11;;;;;;;8.35;3.33;;;;;;;29.82;25.47;100343.50;5049691;28;20013;-43
2022/10/24 08:56:37;;;;;;;9.60;3.50;;;;;;;29.63;24.94;100347.28;5047149;28;20527;-43
2022/10/24 08:59:03;;;;;;;12.15;3.28;;;;;;;29.98;24.80;100341.91;5049316;28;20496;-44
2022/10/24 09:01:29;;;;;;;8.18;3.70;;;;;;;29.77;25.14;100344.44;5050004;28;20032;-43
2022/10/24 09:03:59;;;;;;;5.63;3.60;;;;;;;29.62;25.28;100353.06;5049292;28;20051;-42
2022/10/24 09:06:28;;;;;;;8.07;3.72;;;;;;;29.78;24.86;100337.03;5048983;28;20043;-44
2022/10/24 09:09:19;;;;;;;6.72;3.70;;;;;;;29.95;25.09;100339.00;5048738;28;20025;-43
2022/10/24 09:11:53;;;;;;;10.30;3.67;;;;;;;29.11;26.09;100335.22;5048687;28;20037;-43
2022/10/24 09:14:18;;;;;;;8.73;3.70;;;;;;;29.68;25.01;100331.81;5049782;28;20025;-43
2022/10/24 09:16:50;;;;;;;7.60;3.53;;;;;;;30.16;25.09;100333.75;5049929;28;20166;-43
2022/10/24 09:19:22;;;;;;;7.55;3.95;;;;;;;30.52;24.42;100327.13;5049573;28;20033;-43
2022/10/24 09:21:48;;;;;;;5.38;3.50;;;;;;;30.67;24.12;100323.09;5049334;28;20029;-44
2022/10/24 09:24:26;;;;;;;10.30;5.38;;;;;;;30.25;24.48;100317.25;5049615;28;20413;-43
2022/10/24 09:26:51;;;;;;;12.30;4.43;;;;;;;29.69;25.41;100312.28;5049513;28;20111;-44
2022/10/24 09:29:17;;;;;;;10.93;3.90;;;;;;;29.51;25.41;100308.69;5049863;28;20084;-44
2022/10/24 09:31:42;;;;;;;5.88;3.47;;;;;;;30.01;24.49;100308.38;5049711;28;20477;-43
2022/10/24 09:34:10;;;;;;;7.80;3.47;;;;;;;29.95;25.17;100297.84;5049250;28;20104;-43
2022/10/24 09:36:38;;;;;;;13.88;3.60;;;;;;;29.95;25.17;100308.81;5049238;28;20040;-43
2022/10/24 09:39:24;;;;;;;10.18;3.75;;;;;;;30.43;24.66;100304.41;5049560;28;20494;-43
2022/10/24 09:41:49;;;;;;;9.25;3.30;;;;;;;30.51;24.66;100296.13;5051913;28;20496;-43
2022/10/24 09:44:30;;;;;;;9.63;4.85;;;;;;;30.28;24.44;100297.41;5053341;28;20032;-43
2022/10/24 09:46:56;;;;;;;7.43;4.25;;;;;;;30.05;24.77;100292.06;5053016;28;20024;-42
2022/10/24 09:49:25;;;;;;;7.05;3.40;;;;;;;30.49;24.75;100284.69;5053157;28;20099;-42
2022/10/24 09:52:14;;;;;;;6.63;2.95;;;;;;;30.68;24.71;100280.78;5052850;28;20051;-43
2022/10/24 09:54:40;;;;;;;10.05;3.50;;;;;;;30.49;24.68;100279.19;5053025;28;20032;-44
2022/10/24 09:57:15;;;;;;;10.82;3.22;;;;;;;30.88;24.71;100266.38;5052836;28;20037;-44
2022/10/24 09:59:59;;;;;;;11.40;3.22;;;;;;;30.51;24.46;100271.44;5052922;28;20116;-43
2022/10/24 10:02:33;;;;;;;10.27;3.10;;;;;;;30.50;24.75;100269.81;5052809;28;20029;-44
2022/10/24 10:05:01;;;;;;;9.07;3.65;;;;;;;30.69;24.67;100257.66;5052896;28;20493;-44
2022/10/24 10:07:38;;;;;;;8.95;3.35;;;;;;;30.75;24.82;100261.88;5052815;28;20043;-42
2022/10/24 10:10:26;;;;;;;9.05;2.90;;;;;;;31.22;24.61;100256.38;5052317;28;20033;-43
2022/10/24 10:13:14;;;;;;;10.20;3.55;;;;;;;31.60;23.83;100252.03;5032327;28;20091;-44
2022/10/24 10:15:50;;;;;;;9.35;3.47;;;;;;;31.55;23.51;100240.09;5047534;28;20040;-43
2022/10/24 10:18:34;;;;;;;7.53;3.22;;;;;;;31.04;23.75;100243.88;5052905;28;20033;-43
2022/10/24 10:21:11;;;;;;;7.07;3.15;;;;;;;30.39;24.38;100236.41;5052536;28;20028;-43
2022/10/24 10:23:41;;;;;;;7.63;3.08;;;;;;;30.11;24.26;100232.34;5052724;28;20134;-43
2022/10/24 10:26:28;;;;;;;10.25;3.50;;;;;;;29.43;25.63;100229.97;5052738;28;20128;-42
2022/10/24 10:29:19;;;;;;;7.80;3.15;;;;;;;29.17;25.67;100217.00;5052318;28;20387;-42
2022/10/24 10:32:16;;;;;;;8.02;3.30;;;;;;;28.63;26.43;100232.66;5052419;28;20033;-43
2022/10/24 10:34:49;;;;;;;10.15;3.13;;;;;;;28.61;26.37;100219.25;5052892;28;20024;-43
2022/10/24 10:37:18;;;;;;;13.10;3.10;;;;;;;28.47;27.35;100218.53;5052284;28;20028;-43
2022/10/24 10:39:49;;;;;;;15.75;3.30;;;;;;;28.90;27.22;100204.31;5052402;28;20049;-43
2022/10/24 10:42:53;;;;;;;10.75;3.10;;;;;;;29.18;26.66;100199.44;5052390;28;20036;-44
2022/10/24 10:45:27;;;;;;;10.35;3.03;;;;;;;29.21;26.93;100198.00;5046751;28;20036;-43
2022/10/24 10:47:59;;;;;;;7.28;3.05;;;;;;;29.48;26.28;100194.19;5052311;28;20120;-43
2022/10/24 10:50:48;;;;;;;6.43;3.30;;;;;;;29.36;26.14;100194.00;5051991;28;20189;-43
2022/10/24 10:53:21;;;;;;;8.50;3.05;;;;;;;29.68;25.74;100190.00;5051186;28;20092;-44
2022/10/24 10:56:19;;;;;;;4.40;2.78;;;;;;;29.73;25.36;100195.38;5052395;28;20151;-43
2022/10/24 10:58:44;;;;;;;7.32;2.97;;;;;;;29.55;26.09;100185.47;5037880;28;20385;-42
2022/10/24 11:01:47;;;;;;;5.70;2.80;;;;;;;29.70;26.07;100181.47;5052201;28;20029;-44
2022/10/24 11:04:42;;;;;;;10.00;2.83;;;;;;;30.18;25.82;100177.81;5052260;28;20044;-45
2022/10/24 11:07:33;;;;;;;6.38;2.72;;;;;;;30.58;25.49;100172.09;5052005;28;20036;-45
2022/10/24 11:10:03;;;;;;;8.50;2.95;;;;;;;30.88;25.19;100172.97;5052571;28;20178;-44
2022/10/24 11:12:33;;;;;;;8.05;2.65;;;;;;;31.16;24.89;100167.03;5052323;28;20044;-42
2022/10/24 11:15:05;;;;;;;6.20;2.70;;;;;;;30.42;24.98;100163.56;5052524;28;20052;-43
2022/10/24 11:17:58;;;;;;;7.90;2.60;;;;;;;30.25;25.00;100163.56;5052338;28;20055;-43
2022/10/24 11:20:34;;;;;;;7.47;3.20;;;;;;;30.15;25.56;100164.72;5048815;28;20130;-43
2022/10/24 11:23:09;;;;;;;4.28;2.72;;;;;;;30.77;25.09;100161.53;5051897;28;20132;-45
2022/10/24 11:25:47;;;;;;;8.35;3.00;;;;;;;31.31;24.16;100160.16;5052045;28;20029;-43
2022/10/24 11:28:24;;;;;;;7.07;3.08;;;;;;;31.76;24.27;100157.59;5051978;28;20036;-43
2022/10/24 11:30:57;;;;;;;4.53;2.70;;;;;;;31.98;24.03;100147.34;5051437;28;20424;-44
2022/10/24 11:33:43;;;;;;;8.70;3.10;;;;;;;32.23;23.69;100147.47;5050564;28;20040;-43
2022/10/24 11:36:16;;;;;;;6.90;2.65;;;;;;;31.81;23.81;100142.00;5050879;28;20477;-43